createdAt,value
2023-03-22T00:01:24.294Z,7.70
2023-03-22T00:03:52.525Z,8.37
2023-03-22T00:06:19.385Z,8.53
2023-03-22T00:08:50.645Z,9.33
2023-03-22T00:11:17.865Z,8.47
2023-03-22T00:13:46.938Z,7.73
2023-03-22T00:16:15.189Z,9.43
2023-03-22T00:18:41.889Z,8.93
2023-03-22T00:21:13.443Z,10.50
2023-03-22T00:23:40.452Z,9.67
2023-03-22T00:26:08.816Z,10.77
2023-03-22T00:28:36.870Z,9.47
2023-03-22T00:31:04.829Z,9.93
2023-03-22T00:33:33.146Z,9.53
2023-03-22T00:36:02.848Z,8.23
2023-03-22T00:38:42.398Z,8.23
2023-03-22T00:41:13.351Z,10.73
2023-03-22T00:43:40.373Z,10.77
2023-03-22T00:46:07.970Z,11.27
2023-03-22T00:48:34.821Z,10.23
2023-03-22T00:51:01.699Z,11.80
2023-03-22T00:53:30.471Z,10.83
2023-03-22T00:55:57.384Z,11.50
2023-03-22T00:58:24.568Z,10.63
2023-03-22T01:00:51.409Z,10.60
2023-03-22T01:03:21.969Z,9.87
2023-03-22T01:05:49.485Z,13.20
2023-03-22T01:08:16.736Z,9.87
2023-03-22T01:10:44.929Z,10.87
2023-03-22T01:13:12.678Z,10.60
2023-03-22T01:15:39.680Z,11.27
2023-03-22T01:18:07.575Z,11.70
2023-03-22T01:20:34.978Z,10.43
2023-03-22T01:23:02.054Z,10.50
2023-03-22T01:25:28.931Z,13.17
2023-03-22T01:27:55.526Z,9.97
2023-03-22T01:30:22.251Z,12.80
2023-03-22T01:32:48.943Z,9.10
2023-03-22T01:35:17.017Z,9.60
2023-03-22T01:37:43.984Z,11.33
2023-03-22T01:40:14.010Z,11.00
2023-03-22T01:42:40.882Z,8.97
2023-03-22T01:45:16.680Z,9.60
2023-03-22T01:48:10.300Z,9.90
2023-03-22T01:50:40.020Z,9.87
2023-03-22T01:53:10.360Z,9.43
2023-03-22T01:55:38.019Z,10.90
2023-03-22T01:58:18.123Z,9.17
2023-03-22T02:00:56.474Z,9.43
2023-03-22T02:03:47.110Z,8.03
2023-03-22T02:06:14.129Z,7.03
2023-03-22T02:08:40.813Z,8.80
2023-03-22T02:11:16.310Z,7.87
2023-03-22T02:14:09.214Z,8.40
2023-03-22T02:17:51.405Z,7.47
2023-03-22T02:20:53.089Z,9.00
2023-03-22T02:23:42.669Z,8.90
2023-03-22T02:26:21.179Z,7.57
2023-03-22T02:29:12.666Z,7.13
2023-03-22T02:31:58.811Z,6.63
2023-03-22T02:34:40.655Z,9.40
2023-03-22T02:37:38.418Z,7.43
2023-03-22T02:40:14.133Z,7.20
2023-03-22T02:42:43.567Z,9.80
2023-03-22T02:45:20.202Z,7.80
2023-03-22T02:47:50.045Z,11.27
2023-03-22T02:50:54.913Z,8.93
2023-03-22T02:53:24.395Z,9.20
2023-03-22T02:56:08.233Z,9.77
2023-03-22T02:58:45.808Z,9.03
2023-03-22T03:01:24.484Z,8.53
2023-03-22T03:03:55.299Z,9.03
2023-03-22T03:06:25.716Z,10.03
2023-03-22T03:08:54.152Z,8.90
2023-03-22T03:11:21.408Z,8.83
2023-03-22T03:13:50.392Z,10.83
2023-03-22T03:16:21.651Z,8.23
2023-03-22T03:19:08.793Z,6.63
2023-03-22T03:21:47.577Z,7.87
2023-03-22T03:24:39.013Z,8.33
2023-03-22T03:27:23.112Z,6.77
2023-03-22T03:30:00.867Z,6.33
2023-03-22T03:32:47.960Z,10.00
2023-03-22T03:35:22.981Z,8.10
2023-03-22T03:37:54.293Z,6.73
2023-03-22T03:40:27.352Z,6.97
2023-03-22T03:42:56.515Z,8.23
2023-03-22T03:45:25.075Z,8.57
2023-03-22T03:47:58.163Z,8.03
2023-03-22T03:50:26.572Z,5.40
2023-03-22T03:52:55.620Z,10.40
2023-03-22T03:55:23.197Z,8.27
2023-03-22T03:57:50.241Z,6.17
2023-03-22T04:00:17.688Z,6.63
2023-03-22T04:03:21.773Z,9.17
2023-03-22T04:06:22.426Z,6.87
2023-03-22T04:08:56.694Z,7.87
2023-03-22T04:11:27.701Z,9.27
2023-03-22T04:13:58.630Z,7.73
2023-03-22T04:16:25.298Z,7.73
2023-03-22T04:18:53.377Z,6.33
2023-03-22T04:21:21.662Z,8.50
2023-03-22T04:23:59.646Z,6.60
2023-03-22T04:26:29.281Z,9.60
2023-03-22T04:29:13.519Z,7.73
2023-03-22T04:31:44.595Z,9.47
2023-03-22T04:34:21.551Z,7.83
2023-03-22T04:36:55.034Z,8.53
2023-03-22T04:39:29.510Z,6.77
2023-03-22T04:42:16.183Z,7.27
2023-03-22T04:44:43.535Z,8.60
2023-03-22T04:47:10.405Z,7.17
2023-03-22T04:49:37.378Z,9.80
2023-03-22T04:52:04.035Z,10.60
2023-03-22T04:54:34.730Z,9.87
2023-03-22T04:57:02.150Z,10.60
2023-03-22T04:59:33.384Z,8.47
2023-03-22T05:02:00.148Z,7.40
2023-03-22T05:04:31.961Z,9.37
2023-03-22T05:07:04.626Z,9.43
2023-03-22T05:09:42.012Z,8.80
2023-03-22T05:12:08.981Z,10.90
2023-03-22T05:14:44.828Z,9.67
2023-03-22T05:17:13.341Z,8.87
2023-03-22T05:19:40.596Z,11.33
2023-03-22T05:22:07.191Z,11.80
2023-03-22T05:24:42.685Z,10.63
2023-03-22T05:27:14.296Z,9.50
2023-03-22T05:29:45.140Z,10.07
2023-03-22T05:32:25.557Z,7.77
2023-03-22T05:34:53.931Z,10.53
2023-03-22T05:37:27.726Z,10.70
2023-03-22T05:39:56.117Z,9.57
2023-03-22T05:42:31.113Z,8.13
2023-03-22T05:44:58.742Z,7.10
2023-03-22T05:47:25.316Z,9.47
2023-03-22T05:49:58.305Z,8.93
2023-03-22T05:52:26.315Z,12.60
2023-03-22T05:55:19.715Z,11.10
2023-03-22T05:57:47.767Z,8.17
2023-03-22T06:00:16.325Z,8.93
2023-03-22T06:03:16.893Z,8.17
2023-03-22T06:05:50.683Z,9.47
2023-03-22T06:08:19.687Z,8.63
2023-03-22T06:10:49.594Z,9.40
2023-03-22T06:13:16.357Z,10.87
2023-03-22T06:15:42.958Z,7.07
2023-03-22T06:18:13.905Z,8.03
2023-03-22T06:20:44.473Z,10.30
2023-03-22T06:23:18.425Z,8.50
2023-03-22T06:25:46.840Z,8.93
2023-03-22T06:28:14.461Z,7.33
2023-03-22T06:30:48.728Z,9.77
2023-03-22T06:33:27.839Z,8.40
2023-03-22T06:36:01.946Z,10.63
2023-03-22T06:38:38.507Z,10.13
2023-03-22T06:41:05.357Z,8.20
2023-03-22T06:43:32.028Z,7.80
2023-03-22T06:46:10.898Z,9.07
2023-03-22T06:48:45.457Z,11.83
2023-03-22T06:51:15.033Z,7.88
2023-03-22T06:53:42.401Z,9.05
2023-03-22T06:56:09.936Z,7.88
2023-03-22T06:58:47.586Z,9.43
2023-03-22T07:01:14.224Z,8.57
2023-03-22T07:03:40.981Z,8.98
2023-03-22T07:06:12.365Z,6.30
2023-03-22T07:08:42.680Z,6.57
2023-03-22T07:11:10.944Z,8.30
2023-03-22T07:13:37.910Z,9.45
2023-03-22T07:16:10.383Z,9.80
2023-03-22T07:18:40.609Z,10.35
2023-03-22T07:21:07.655Z,6.05
2023-03-22T07:23:36.312Z,7.53
2023-03-22T07:26:08.810Z,6.47
2023-03-22T07:28:39.237Z,9.10
2023-03-22T07:31:11.564Z,6.57
2023-03-22T07:33:48.225Z,8.23
2023-03-22T07:36:15.574Z,8.20
2023-03-22T07:38:42.430Z,7.07
2023-03-22T07:41:15.431Z,5.00
2023-03-22T07:44:17.338Z,5.30
2023-03-22T07:46:56.268Z,6.57
2023-03-22T07:49:28.674Z,5.05
2023-03-22T07:52:03.868Z,7.32
2023-03-22T07:54:34.162Z,3.95
2023-03-22T07:57:03.057Z,5.55
2023-03-22T07:59:32.050Z,4.20
2023-03-22T08:01:59.268Z,2.60
2023-03-22T08:04:39.453Z,4.03
2023-03-22T08:07:19.833Z,4.53
2023-03-22T08:09:47.726Z,3.75
2023-03-22T08:12:14.650Z,2.72
2023-03-22T08:14:42.735Z,3.45
2023-03-22T08:17:17.506Z,4.70
2023-03-22T08:19:44.358Z,4.95
2023-03-22T08:22:15.479Z,2.28
2023-03-22T08:25:01.291Z,2.45
2023-03-22T08:27:31.886Z,3.13
2023-03-22T08:30:00.813Z,2.50
2023-03-22T08:32:27.587Z,6.32
2023-03-22T08:34:54.173Z,4.07
2023-03-22T08:37:20.849Z,3.35
2023-03-22T08:39:48.359Z,2.75
2023-03-22T08:42:25.562Z,3.65
2023-03-22T08:44:52.534Z,4.45
2023-03-22T08:47:21.266Z,2.47
2023-03-22T08:49:51.867Z,3.85
2023-03-22T08:52:27.900Z,2.88
2023-03-22T08:55:08.468Z,2.60
2023-03-22T08:58:07.550Z,2.50
2023-03-22T09:00:54.909Z,4.50
2023-03-22T09:03:30.954Z,3.42
2023-03-22T09:05:58.036Z,3.03
2023-03-22T09:08:27.238Z,2.35
2023-03-22T09:11:00.936Z,1.23
2023-03-22T09:13:31.049Z,2.13
2023-03-22T09:16:00.916Z,3.70
2023-03-22T09:18:31.006Z,2.70
2023-03-22T09:21:01.021Z,4.13
2023-03-22T09:23:36.216Z,2.10
2023-03-22T09:26:07.905Z,3.80
2023-03-22T09:28:36.249Z,1.85
2023-03-22T09:31:08.343Z,1.88
2023-03-22T09:33:36.420Z,2.47
2023-03-22T09:36:03.846Z,2.15
2023-03-22T09:38:35.731Z,1.48
2023-03-22T09:41:07.097Z,2.53
2023-03-22T09:43:39.865Z,3.10
2023-03-22T09:46:20.495Z,2.03
2023-03-22T09:48:49.466Z,2.17
2023-03-22T09:51:44.341Z,2.92
2023-03-22T09:54:19.456Z,3.55
2023-03-22T09:56:56.354Z,3.33
2023-03-22T09:59:40.065Z,3.45
2023-03-22T10:02:41.666Z,1.70
2023-03-22T10:05:39.643Z,2.95
2023-03-22T10:08:29.609Z,3.20
2023-03-22T10:10:57.809Z,5.90
2023-03-22T10:13:45.257Z,2.85
2023-03-22T10:16:20.693Z,3.63
2023-03-22T10:18:52.146Z,2.10
2023-03-22T10:21:19.893Z,2.83
2023-03-22T10:23:57.816Z,2.60
2023-03-22T10:26:38.161Z,2.67
2023-03-22T10:29:15.249Z,1.50
2023-03-22T10:31:43.808Z,2.70
2023-03-22T10:34:22.513Z,2.40
2023-03-22T10:36:52.553Z,2.50
2023-03-22T10:39:39.692Z,2.20
2023-03-22T10:42:14.067Z,3.85
2023-03-22T10:45:13.531Z,2.50
2023-03-22T10:47:47.259Z,3.25
2023-03-22T10:50:22.572Z,2.63
2023-03-22T10:52:57.297Z,2.03
2023-03-22T10:55:24.774Z,2.80
2023-03-22T10:58:21.779Z,2.05
2023-03-22T11:00:50.464Z,2.85
2023-03-22T11:03:38.619Z,1.90
2023-03-22T11:06:10.771Z,1.55
2023-03-22T11:08:49.742Z,2.67
2023-03-22T11:11:35.902Z,2.28
2023-03-22T11:14:14.454Z,2.80
2023-03-22T11:16:56.209Z,6.03
2023-03-22T11:19:27.251Z,2.55
2023-03-22T11:21:59.175Z,3.60
2023-03-22T11:24:27.262Z,3.05
2023-03-22T11:27:18.310Z,3.40
2023-03-22T11:29:51.464Z,2.97
2023-03-22T11:32:26.330Z,2.58
2023-03-22T11:35:00.876Z,2.42
2023-03-22T11:37:28.153Z,2.38
2023-03-22T11:40:01.595Z,1.98
2023-03-22T11:42:28.677Z,2.10
2023-03-22T11:44:56.888Z,2.25
2023-03-22T11:47:26.173Z,3.33
2023-03-22T11:49:56.490Z,3.58
2023-03-22T11:52:27.723Z,2.47
2023-03-22T11:54:55.987Z,1.95
2023-03-22T11:57:31.545Z,3.03
2023-03-22T12:00:11.386Z,3.17
2023-03-22T12:02:46.351Z,2.33
2023-03-22T12:05:27.520Z,2.15
2023-03-22T12:08:12.139Z,3.45
2023-03-22T12:10:41.434Z,2.60
2023-03-22T12:13:15.925Z,1.42
2023-03-22T12:15:48.619Z,2.75
2023-03-22T12:18:19.977Z,2.85
2023-03-22T12:20:54.625Z,4.50
2023-03-22T12:23:24.507Z,1.80
2023-03-22T12:25:57.532Z,3.13
2023-03-22T12:28:32.518Z,3.05
2023-03-22T12:31:00.942Z,3.58
2023-03-22T12:33:27.948Z,1.98
2023-03-22T12:36:00.627Z,2.35
2023-03-22T12:38:30.347Z,2.97
2023-03-22T12:41:02.278Z,1.83
2023-03-22T12:43:55.739Z,2.03
2023-03-22T12:46:29.694Z,3.35
2023-03-22T12:49:16.251Z,2.28
2023-03-22T12:51:44.024Z,3.90
2023-03-22T12:54:13.029Z,1.65
2023-03-22T12:56:45.740Z,2.08
2023-03-22T12:59:29.146Z,2.42
2023-03-22T13:02:24.793Z,2.20
2023-03-22T13:05:06.958Z,3.85
2023-03-22T13:07:50.019Z,4.70
2023-03-22T13:10:32.482Z,1.98
2023-03-22T13:13:19.396Z,2.00
2023-03-22T13:16:00.350Z,2.45
2023-03-22T13:18:35.793Z,2.28
2023-03-22T13:21:19.240Z,3.15
2023-03-22T13:24:08.779Z,2.65
2023-03-22T13:26:46.006Z,3.85
2023-03-22T13:29:19.220Z,3.35
2023-03-22T13:31:51.768Z,2.33
2023-03-22T13:34:36.214Z,3.92
2023-03-22T13:37:05.240Z,4.05
2023-03-22T13:39:34.677Z,4.00
2023-03-22T13:42:07.740Z,1.83
2023-03-22T13:44:40.548Z,3.28
2023-03-22T13:47:38.506Z,3.35
2023-03-22T13:50:22.553Z,3.00
2023-03-22T13:52:58.833Z,5.50
2023-03-22T13:55:58.200Z,3.47
2023-03-22T13:58:48.473Z,2.40
2023-03-22T14:01:35.142Z,2.15
2023-03-22T14:04:09.511Z,2.72
2023-03-22T14:06:47.548Z,2.25
2023-03-22T14:09:25.211Z,5.05
2023-03-22T14:12:18.039Z,2.38
2023-03-22T14:14:48.918Z,2.65
2023-03-22T14:17:36.997Z,2.90
2023-03-22T14:20:10.517Z,4.07
